Sikinos — 9HA2865 — position and weather

sailwx.info

Track history (hours):
 
Tides and Currents Weather Stations Pressure Air Temp Water Temp Dewpoint Dewpoint Depression Visibility Wind Speed Wind Dir Waves Ship Positions

Sikinos

Last reported at 2016-Dec-02 10:12 UTC. Time now 2016-Dec-03 09:38 UTC.
Position N 51°53' E 004°23'.

Length 90 m; draft 4.7 m.

Type: Ship (hazmat cat A). MMSI: 256462000.

Date/timePositionNaut miles runAvg speedWind from/ knotsBaromVisibWave heightAir tempDewpointWater temp
2016-Dec-02 10:12N 51°53' E 004°23'0 0.0
2016-Dec-01 20:18N 51°53' E 004°23'1 1.6
2016-Dec-01 19:34N 51°54' E 004°21'2 2.3
2016-Dec-01 18:31N 51°53' E 004°17'0 0.0
2016-Dec-01 17:18N 51°53' E 004°17'0 0.0
2016-Dec-01 16:30N 51°53' E 004°17'0 0.0
2016-Dec-01 15:24N 51°53' E 004°17'0 0.0
2016-Dec-01 14:30N 51°53' E 004°17'0 0.0
2016-Dec-01 13:24N 51°53' E 004°17'0 0.0
2016-Dec-01 12:30N 51°53' E 004°17'0 0.0
2016-Dec-01 11:30N 51°53' E 004°17'0 0.0
2016-Dec-01 10:24N 51°53' E 004°17'0 0.0
2016-Dec-01 09:09N 51°53' E 004°17'0 0.0
2016-Dec-01 08:30N 51°53' E 004°17'0 0.0
2016-Dec-01 07:33N 51°53' E 004°17'0 0.0
2016-Dec-01 06:27N 51°53' E 004°17'0 0.0
2016-Dec-01 05:33N 51°53' E 004°17'0 0.0
2016-Dec-01 04:33N 51°53' E 004°17'0 0.0
2016-Dec-01 03:33N 51°53' E 004°17'0 0.0
2016-Dec-01 02:33N 51°53' E 004°17'0 0.0
2016-Dec-01 01:33N 51°53' E 004°17'0 0.0
2016-Dec-01 00:33N 51°53' E 004°17'0 0.0
2016-Nov-30 23:27N 51°53' E 004°17'0 0.0
2016-Nov-30 22:06N 51°53' E 004°17'0 0.0
2016-Nov-30 21:30N 51°53' E 004°17'0 0.0
2016-Nov-30 20:30N 51°53' E 004°17'0 0.0
2016-Nov-30 19:33N 51°53' E 004°17'0 0.0
2016-Nov-30 18:24N 51°53' E 004°17'0 0.0
2016-Nov-30 17:33N 51°53' E 004°17'0 0.0
2016-Nov-30 16:24N 51°53' E 004°17'0 0.0
2016-Nov-30 15:30N 51°53' E 004°17'0 0.0
2016-Nov-30 14:30N 51°53' E 004°17'0 0.0
2016-Nov-30 13:18N 51°53' E 004°17'0 0.0
2016-Nov-30 12:33N 51°53' E 004°17'0 0.0
2016-Nov-30 11:24N 51°53' E 004°17'0 0.0
2016-Nov-30 10:33N 51°53' E 004°17'0 0.0
2016-Nov-30 09:30N 51°53' E 004°17'0 0.0
2016-Nov-30 08:18N 51°53' E 004°17'0 0.0
2016-Nov-30 07:30N 51°53' E 004°17'0 0.0
2016-Nov-30 06:33N 51°53' E 004°17'0 0.0
2016-Nov-30 05:33N 51°53' E 004°17'0 0.0
2016-Nov-30 04:33N 51°53' E 004°17'0 0.0
2016-Nov-30 03:33N 51°53' E 004°17'0 0.0
2016-Nov-30 02:33N 51°53' E 004°17'0 0.0
2016-Nov-30 01:21N 51°53' E 004°17'0 0.0
2016-Nov-30 00:30N 51°53' E 004°17'0 0.0
2016-Nov-29 23:33N 51°53' E 004°17'0 0.0
2016-Nov-29 22:30N 51°53' E 004°17'0 0.0
2016-Nov-29 21:30N 51°53' E 004°17'0 0.0
2016-Nov-29 20:24N 51°53' E 004°17'0 0.0
2016-Nov-29 19:24N 51°53' E 004°17'0 0.0
2016-Nov-29 18:30N 51°53' E 004°17'0 0.0
2016-Nov-29 17:30N 51°53' E 004°17'0 0.0
2016-Nov-29 16:27N 51°53' E 004°17'0 0.0
2016-Nov-29 15:33N 51°53' E 004°17'0 0.0
2016-Nov-29 14:24N 51°53' E 004°17'0 0.0
2016-Nov-29 13:33N 51°53' E 004°17'0 0.0
2016-Nov-29 12:27N 51°53' E 004°17'0 0.0
2016-Nov-29 11:30N 51°53' E 004°17'0 0.0
2016-Nov-29 10:33N 51°53' E 004°17'0 0.0
2016-Nov-29 09:18N 51°53' E 004°17'0 0.0
2016-Nov-29 08:33N 51°53' E 004°17'0 0.0
2016-Nov-29 07:30N 51°53' E 004°17'0 0.0
2016-Nov-29 06:30N 51°53' E 004°17'1 1.1
2016-Nov-29 05:33N 51°54' E 004°16'9 9.1
2016-Nov-29 04:33N 51°59' E 004°04'1010.5
2016-Nov-29 03:33N 51°59' E 003°47'1513.0
2016-Nov-29 02:26N 51°55' E 003°24'1413.3
2016-Nov-29 01:23N 51°50' E 003°02'1113.2
2016-Nov-29 00:33N 51°48' E 002°45'1312.8
2016-Nov-28 23:33N 51°40' E 002°29'1312.7
2016-Nov-28 22:33N 51°30' E 002°16'1111.3
2016-Nov-28 21:33N 51°20' E 002°07'1010.1
2016-Nov-28 20:34N 51°11' E 001°59'9 9.3
2016-Nov-28 19:33N 51°06' E 001°47'8 7.7
2016-Nov-28 18:33N 50°58' E 001°47'3 0.4
2016-Nov-28 11:33N 50°58' E 001°52'5 5.4
2016-Nov-28 10:33N 50°60' E 001°44'1211.6
2016-Nov-28 09:33N 50°53' E 001°30'6011.0
2016-Nov-28 04:07N 50°21' E 000°09'610.2
2016-Nov-28 03:32N 50°21' W 000°00'1010.6
2016-Nov-28 02:33N 50°25' W 000°15'1010.3
2016-Nov-28 01:33N 50°30' W 000°29'1010.2
2016-Nov-28 00:32N 50°35' W 000°43'1010.1
2016-Nov-27 23:33N 50°40' W 000°57'10 9.8
2016-Nov-27 22:33N 50°46' W 001°10'10 9.8
2016-Nov-27 21:33N 50°52' W 001°22'3 0.4
2016-Nov-27 14:09N 50°54' W 001°25'2 3.8
2016-Nov-27 13:33N 50°52' W 001°23'8 8.1
2016-Nov-27 12:33N 50°46' W 001°14'1111.1
2016-Nov-27 11:34N 50°42' W 000°58'6 6.2
2016-Nov-27 10:34N 50°38' W 000°50'1110.8
2016-Nov-27 09:33N 50°35' W 000°34'1111.5
2016-Nov-27 08:34N 50°31' W 000°17'1211.2
2016-Nov-27 07:30N 50°33' E 000°01'1111.1
2016-Nov-27 06:33N 50°36' E 000°17'4013.1
2016-Nov-27 03:33N 50°56' E 001°11'1414.1
2016-Nov-27 02:33N 51°04' E 001°28'1312.7
2016-Nov-27 01:33N 51°13' E 001°43'1211.6
2016-Nov-27 00:33N 51°23' E 001°51'6 5.9
2016-Nov-26 23:30N 51°29' E 001°48'0 0.0
2016-Nov-26 18:17N 51°29' E 001°48'0 0.0
2016-Nov-26 17:32N 51°29' E 001°48'1 1.0
2016-Nov-26 16:28N 51°28' E 001°48'0 0.0
2016-Nov-26 15:28N 51°28' E 001°48'0 0.1
2016-Nov-26 14:31N 51°28' E 001°48'0 0.1
2016-Nov-26 13:31N 51°28' E 001°48'0 0.0
2016-Nov-26 12:31N 51°28' E 001°48'0 0.0
2016-Nov-26 11:28N 51°28' E 001°48'0 0.1
2016-Nov-26 10:25N 51°28' E 001°48'0 0.1
2016-Nov-26 09:28N 51°28' E 001°48'0 0.2
2016-Nov-26 08:34N 51°28' E 001°48'9 8.7
2016-Nov-26 07:33N 51°26' E 002°01'1212.0
2016-Nov-26 06:33N 51°21' E 002°19'1313.4
2016-Nov-26 05:33N 51°23' E 002°40'1211.6
2016-Nov-26 04:33N 51°23' E 002°58'9 8.6
2016-Nov-26 03:33N 51°21' E 003°12'0 0.0
2016-Nov-26 02:31N 51°21' E 003°12'0 0.0
2016-Nov-26 01:31N 51°21' E 003°12'0 0.0
2016-Nov-26 00:31N 51°21' E 003°12'0 0.0
2016-Nov-25 23:31N 51°21' E 003°12'0 0.0
2016-Nov-25 22:31N 51°21' E 003°12'0 0.0
2016-Nov-25 21:31N 51°21' E 003°12'0 0.0
2016-Nov-25 20:31N 51°21' E 003°12'0 0.0
2016-Nov-25 19:31N 51°21' E 003°12'0 0.0
2016-Nov-25 18:31N 51°21' E 003°12'1 0.7
2016-Nov-25 17:33N 51°21' E 003°12'9 8.6
2016-Nov-25 16:33N 51°23' E 002°59'9 9.2
2016-Nov-25 15:33N 51°22' E 002°44'5 5.0
2016-Nov-25 14:33N 51°22' E 002°36'7 6.5
2016-Nov-25 13:33N 51°21' E 002°26'9 9.2
2016-Nov-25 12:33N 51°16' E 002°13'9 8.6
2016-Nov-25 11:33N 51°11' E 002°01'9 9.1
2016-Nov-25 10:33N 51°05' E 001°51'2 1.8
2016-Nov-25 09:34N 51°03' E 001°51'8 8.4
2016-Nov-25 08:33N 51°03' E 002°05'1010.2
2016-Nov-25 07:34N 51°03' E 002°21'1 1.1
2016-Nov-25 06:33N 51°03' E 002°19'1 1.1
2016-Nov-25 05:26N 51°03' E 002°17'0 0.0
2016-Nov-25 04:31N 51°03' E 002°17'0 0.0
2016-Nov-25 03:28N 51°03' E 002°17'0 0.0
2016-Nov-25 02:32N 51°03' E 002°17'0 0.0
2016-Nov-25 01:25N 51°03' E 002°17'0 0.0
2016-Nov-25 00:29N 51°03' E 002°17'0 0.0
2016-Nov-24 23:26N 51°03' E 002°17'0 0.0
2016-Nov-24 22:32N 51°03' E 002°17'0 0.0
2016-Nov-24 21:32N 51°03' E 002°17'0 0.0
2016-Nov-24 19:23N 51°03' E 002°17'0 0.0
2016-Nov-24 18:04N 51°03' E 002°17'0 0.0
2016-Nov-24 17:26N 51°03' E 002°17'0 0.0
2016-Nov-24 16:20N 51°03' E 002°17'0 0.0
2016-Nov-24 15:10N 51°03' E 002°17'0 0.0
2016-Nov-24 14:10N 51°03' E 002°17'0 0.0
2016-Nov-24 13:29N 51°03' E 002°17'2 2.3
2016-Nov-24 12:33N 51°03' E 002°20'5 4.8
2016-Nov-24 11:33N 51°03' E 002°13'9 9.2
2016-Nov-24 10:33N 51°02' E 001°58'7 6.6
2016-Nov-24 09:33N 51°03' E 001°48'1110.5
2016-Nov-24 08:33N 51°07' E 002°03'1111.5
2016-Nov-24 07:33N 51°11' E 002°21'1212.2
2016-Nov-24 06:34N 51°19' E 002°35'1111.0
2016-Nov-24 05:33N 51°22' E 002°52'1212.4
2016-Nov-24 04:34N 51°22' E 003°12'2 1.8
2016-Nov-24 03:33N 51°20' E 003°12'0 0.0
2016-Nov-24 02:33N 51°20' E 003°12'0 0.0
2016-Nov-24 01:33N 51°20' E 003°12'0 0.0
2016-Nov-24 00:30N 51°20' E 003°12'0 0.0
2016-Nov-23 23:33N 51°20' E 003°12'0 0.0
2016-Nov-23 22:33N 51°20' E 003°12'0 0.0
2016-Nov-23 21:33N 51°20' E 003°12'0 0.0
2016-Nov-23 20:33N 51°20' E 003°12'0 0.0
2016-Nov-23 19:33N 51°20' E 003°12'0 0.0
2016-Nov-23 18:33N 51°20' E 003°12'0 0.0
2016-Nov-23 17:33N 51°20' E 003°12'0 0.0
2016-Nov-23 16:33N 51°20' E 003°12'0 0.0
2016-Nov-23 15:33N 51°20' E 003°12'0 0.0
2016-Nov-23 14:30N 51°20' E 003°12'0 0.0
2016-Nov-23 13:33N 51°20' E 003°12'0 0.0
2016-Nov-23 12:33N 51°20' E 003°12'0 0.0
2016-Nov-23 11:30N 51°20' E 003°12'0 0.0
2016-Nov-23 10:33N 51°20' E 003°12'0 0.0
2016-Nov-23 09:33N 51°20' E 003°12'0 0.0
2016-Nov-23 08:33N 51°20' E 003°12'0 0.0
2016-Nov-23 07:33N 51°20' E 003°12'0 0.0
2016-Nov-23 06:33N 51°20' E 003°12'0 0.0
2016-Nov-23 03:33N 51°20' E 003°12'0 0.0
2016-Nov-23 02:33N 51°20' E 003°12'0 0.0
2016-Nov-23 00:33N 51°20' E 003°12'0 0.0
2016-Nov-22 23:30N 51°20' E 003°12'0 0.0
2016-Nov-22 22:33N 51°20' E 003°12'0 0.0
2016-Nov-22 20:30N 51°20' E 003°12'0 0.0
2016-Nov-22 19:33N 51°20' E 003°12'1 0.4
2016-Nov-22 17:31N 51°21' E 003°12'0 0.0
2016-Nov-22 16:31N 51°21' E 003°12'0 0.0
2016-Nov-22 15:31N 51°21' E 003°12'0 0.0
2016-Nov-22 14:31N 51°21' E 003°12'0 0.0
2016-Nov-22 13:31N 51°21' E 003°12'0 0.0
2016-Nov-22 10:31N 51°21' E 003°12'  
Track history (hours):
 
Tides and Currents Weather Stations Pressure Air Temp Water Temp Dewpoint Dewpoint Depression Visibility Wind Speed Wind Dir Waves Ship Positions

Sikinos

Last reported at 2016-Dec-02 10:12 UTC. Time now 2016-Dec-03 09:38 UTC.
Position N 51°53' E 004°23'.

Length 90 m; draft 4.7 m.

Type: Ship (hazmat cat A). MMSI: 256462000.

Date/timePositionNaut miles runAvg speedWind from/ knotsBaromVisibWave heightAir tempDewpointWater temp
2016-Dec-02 10:12N 51°53' E 004°23'0 0.0
2016-Dec-01 20:18N 51°53' E 004°23'1 1.6
2016-Dec-01 19:34N 51°54' E 004°21'2 2.3
2016-Dec-01 18:31N 51°53' E 004°17'0 0.0
2016-Dec-01 17:18N 51°53' E 004°17'0 0.0
2016-Dec-01 16:30N 51°53' E 004°17'0 0.0
2016-Dec-01 15:24N 51°53' E 004°17'0 0.0
2016-Dec-01 14:30N 51°53' E 004°17'0 0.0
2016-Dec-01 13:24N 51°53' E 004°17'0 0.0
2016-Dec-01 12:30N 51°53' E 004°17'0 0.0
2016-Dec-01 11:30N 51°53' E 004°17'0 0.0
2016-Dec-01 10:24N 51°53' E 004°17'0 0.0
2016-Dec-01 09:09N 51°53' E 004°17'0 0.0
2016-Dec-01 08:30N 51°53' E 004°17'0 0.0
2016-Dec-01 07:33N 51°53' E 004°17'0 0.0
2016-Dec-01 06:27N 51°53' E 004°17'0 0.0
2016-Dec-01 05:33N 51°53' E 004°17'0 0.0
2016-Dec-01 04:33N 51°53' E 004°17'0 0.0
2016-Dec-01 03:33N 51°53' E 004°17'0 0.0
2016-Dec-01 02:33N 51°53' E 004°17'0 0.0
2016-Dec-01 01:33N 51°53' E 004°17'0 0.0
2016-Dec-01 00:33N 51°53' E 004°17'0 0.0
2016-Nov-30 23:27N 51°53' E 004°17'0 0.0
2016-Nov-30 22:06N 51°53' E 004°17'0 0.0
2016-Nov-30 21:30N 51°53' E 004°17'0 0.0
2016-Nov-30 20:30N 51°53' E 004°17'0 0.0
2016-Nov-30 19:33N 51°53' E 004°17'0 0.0
2016-Nov-30 18:24N 51°53' E 004°17'0 0.0
2016-Nov-30 17:33N 51°53' E 004°17'0 0.0
2016-Nov-30 16:24N 51°53' E 004°17'0 0.0
2016-Nov-30 15:30N 51°53' E 004°17'0 0.0
2016-Nov-30 14:30N 51°53' E 004°17'0 0.0
2016-Nov-30 13:18N 51°53' E 004°17'0 0.0
2016-Nov-30 12:33N 51°53' E 004°17'0 0.0
2016-Nov-30 11:24N 51°53' E 004°17'0 0.0
2016-Nov-30 10:33N 51°53' E 004°17'0 0.0
2016-Nov-30 09:30N 51°53' E 004°17'0 0.0
2016-Nov-30 08:18N 51°53' E 004°17'0 0.0
2016-Nov-30 07:30N 51°53' E 004°17'0 0.0
2016-Nov-30 06:33N 51°53' E 004°17'0 0.0
2016-Nov-30 05:33N 51°53' E 004°17'0 0.0
2016-Nov-30 04:33N 51°53' E 004°17'0 0.0
2016-Nov-30 03:33N 51°53' E 004°17'0 0.0
2016-Nov-30 02:33N 51°53' E 004°17'0 0.0
2016-Nov-30 01:21N 51°53' E 004°17'0 0.0
2016-Nov-30 00:30N 51°53' E 004°17'0 0.0
2016-Nov-29 23:33N 51°53' E 004°17'0 0.0
2016-Nov-29 22:30N 51°53' E 004°17'0 0.0
2016-Nov-29 21:30N 51°53' E 004°17'0 0.0
2016-Nov-29 20:24N 51°53' E 004°17'0 0.0
2016-Nov-29 19:24N 51°53' E 004°17'0 0.0
2016-Nov-29 18:30N 51°53' E 004°17'0 0.0
2016-Nov-29 17:30N 51°53' E 004°17'0 0.0
2016-Nov-29 16:27N 51°53' E 004°17'0 0.0
2016-Nov-29 15:33N 51°53' E 004°17'0 0.0
2016-Nov-29 14:24N 51°53' E 004°17'0 0.0
2016-Nov-29 13:33N 51°53' E 004°17'0 0.0
2016-Nov-29 12:27N 51°53' E 004°17'0 0.0
2016-Nov-29 11:30N 51°53' E 004°17'0 0.0
2016-Nov-29 10:33N 51°53' E 004°17'0 0.0
2016-Nov-29 09:18N 51°53' E 004°17'0 0.0
2016-Nov-29 08:33N 51°53' E 004°17'0 0.0
2016-Nov-29 07:30N 51°53' E 004°17'0 0.0
2016-Nov-29 06:30N 51°53' E 004°17'1 1.1
2016-Nov-29 05:33N 51°54' E 004°16'9 9.1
2016-Nov-29 04:33N 51°59' E 004°04'1010.5
2016-Nov-29 03:33N 51°59' E 003°47'1513.0
2016-Nov-29 02:26N 51°55' E 003°24'1413.3
2016-Nov-29 01:23N 51°50' E 003°02'1113.2
2016-Nov-29 00:33N 51°48' E 002°45'1312.8
2016-Nov-28 23:33N 51°40' E 002°29'1312.7
2016-Nov-28 22:33N 51°30' E 002°16'1111.3
2016-Nov-28 21:33N 51°20' E 002°07'1010.1
2016-Nov-28 20:34N 51°11' E 001°59'9 9.3
2016-Nov-28 19:33N 51°06' E 001°47'8 7.7
2016-Nov-28 18:33N 50°58' E 001°47'3 0.4
2016-Nov-28 11:33N 50°58' E 001°52'5 5.4
2016-Nov-28 10:33N 50°60' E 001°44'1211.6
2016-Nov-28 09:33N 50°53' E 001°30'6011.0
2016-Nov-28 04:07N 50°21' E 000°09'610.2
2016-Nov-28 03:32N 50°21' W 000°00'1010.6
2016-Nov-28 02:33N 50°25' W 000°15'1010.3
2016-Nov-28 01:33N 50°30' W 000°29'1010.2
2016-Nov-28 00:32N 50°35' W 000°43'1010.1
2016-Nov-27 23:33N 50°40' W 000°57'10 9.8
2016-Nov-27 22:33N 50°46' W 001°10'10 9.8
2016-Nov-27 21:33N 50°52' W 001°22'3 0.4
2016-Nov-27 14:09N 50°54' W 001°25'2 3.8
2016-Nov-27 13:33N 50°52' W 001°23'8 8.1
2016-Nov-27 12:33N 50°46' W 001°14'1111.1
2016-Nov-27 11:34N 50°42' W 000°58'6 6.2
2016-Nov-27 10:34N 50°38' W 000°50'1110.8
2016-Nov-27 09:33N 50°35' W 000°34'1111.5
2016-Nov-27 08:34N 50°31' W 000°17'1211.2
2016-Nov-27 07:30N 50°33' E 000°01'1111.1
2016-Nov-27 06:33N 50°36' E 000°17'4013.1
2016-Nov-27 03:33N 50°56' E 001°11'1414.1
2016-Nov-27 02:33N 51°04' E 001°28'1312.7
2016-Nov-27 01:33N 51°13' E 001°43'1211.6
2016-Nov-27 00:33N 51°23' E 001°51'6 5.9
2016-Nov-26 23:30N 51°29' E 001°48'0 0.0
2016-Nov-26 18:17N 51°29' E 001°48'0 0.0
2016-Nov-26 17:32N 51°29' E 001°48'1 1.0
2016-Nov-26 16:28N 51°28' E 001°48'0 0.0
2016-Nov-26 15:28N 51°28' E 001°48'0 0.1
2016-Nov-26 14:31N 51°28' E 001°48'0 0.1
2016-Nov-26 13:31N 51°28' E 001°48'0 0.0
2016-Nov-26 12:31N 51°28' E 001°48'0 0.0
2016-Nov-26 11:28N 51°28' E 001°48'0 0.1
2016-Nov-26 10:25N 51°28' E 001°48'0 0.1
2016-Nov-26 09:28N 51°28' E 001°48'0 0.2
2016-Nov-26 08:34N 51°28' E 001°48'9 8.7
2016-Nov-26 07:33N 51°26' E 002°01'1212.0
2016-Nov-26 06:33N 51°21' E 002°19'1313.4
2016-Nov-26 05:33N 51°23' E 002°40'1211.6
2016-Nov-26 04:33N 51°23' E 002°58'9 8.6
2016-Nov-26 03:33N 51°21' E 003°12'0 0.0
2016-Nov-26 02:31N 51°21' E 003°12'0 0.0
2016-Nov-26 01:31N 51°21' E 003°12'0 0.0
2016-Nov-26 00:31N 51°21' E 003°12'0 0.0
2016-Nov-25 23:31N 51°21' E 003°12'0 0.0
2016-Nov-25 22:31N 51°21' E 003°12'0 0.0
2016-Nov-25 21:31N 51°21' E 003°12'0 0.0
2016-Nov-25 20:31N 51°21' E 003°12'0 0.0
2016-Nov-25 19:31N 51°21' E 003°12'0 0.0
2016-Nov-25 18:31N 51°21' E 003°12'1 0.7
2016-Nov-25 17:33N 51°21' E 003°12'9 8.6
2016-Nov-25 16:33N 51°23' E 002°59'9 9.2
2016-Nov-25 15:33N 51°22' E 002°44'5 5.0
2016-Nov-25 14:33N 51°22' E 002°36'7 6.5
2016-Nov-25 13:33N 51°21' E 002°26'9 9.2
2016-Nov-25 12:33N 51°16' E 002°13'9 8.6
2016-Nov-25 11:33N 51°11' E 002°01'9 9.1
2016-Nov-25 10:33N 51°05' E 001°51'2 1.8
2016-Nov-25 09:34N 51°03' E 001°51'8 8.4
2016-Nov-25 08:33N 51°03' E 002°05'1010.2
2016-Nov-25 07:34N 51°03' E 002°21'1 1.1
2016-Nov-25 06:33N 51°03' E 002°19'1 1.1
2016-Nov-25 05:26N 51°03' E 002°17'0 0.0
2016-Nov-25 04:31N 51°03' E 002°17'0 0.0
2016-Nov-25 03:28N 51°03' E 002°17'0 0.0
2016-Nov-25 02:32N 51°03' E 002°17'0 0.0
2016-Nov-25 01:25N 51°03' E 002°17'0 0.0
2016-Nov-25 00:29N 51°03' E 002°17'0 0.0
2016-Nov-24 23:26N 51°03' E 002°17'0 0.0
2016-Nov-24 22:32N 51°03' E 002°17'0 0.0
2016-Nov-24 21:32N 51°03' E 002°17'0 0.0
2016-Nov-24 19:23N 51°03' E 002°17'0 0.0
2016-Nov-24 18:04N 51°03' E 002°17'0 0.0
2016-Nov-24 17:26N 51°03' E 002°17'0 0.0
2016-Nov-24 16:20N 51°03' E 002°17'0 0.0
2016-Nov-24 15:10N 51°03' E 002°17'0 0.0
2016-Nov-24 14:10N 51°03' E 002°17'0 0.0
2016-Nov-24 13:29N 51°03' E 002°17'2 2.3
2016-Nov-24 12:33N 51°03' E 002°20'5 4.8
2016-Nov-24 11:33N 51°03' E 002°13'9 9.2
2016-Nov-24 10:33N 51°02' E 001°58'7 6.6
2016-Nov-24 09:33N 51°03' E 001°48'1110.5
2016-Nov-24 08:33N 51°07' E 002°03'1111.5
2016-Nov-24 07:33N 51°11' E 002°21'1212.2
2016-Nov-24 06:34N 51°19' E 002°35'1111.0
2016-Nov-24 05:33N 51°22' E 002°52'1212.4
2016-Nov-24 04:34N 51°22' E 003°12'2 1.8
2016-Nov-24 03:33N 51°20' E 003°12'0 0.0
2016-Nov-24 02:33N 51°20' E 003°12'0 0.0
2016-Nov-24 01:33N 51°20' E 003°12'0 0.0
2016-Nov-24 00:30N 51°20' E 003°12'0 0.0
2016-Nov-23 23:33N 51°20' E 003°12'0 0.0
2016-Nov-23 22:33N 51°20' E 003°12'0 0.0
2016-Nov-23 21:33N 51°20' E 003°12'0 0.0
2016-Nov-23 20:33N 51°20' E 003°12'0 0.0
2016-Nov-23 19:33N 51°20' E 003°12'0 0.0
2016-Nov-23 18:33N 51°20' E 003°12'0 0.0
2016-Nov-23 17:33N 51°20' E 003°12'0 0.0
2016-Nov-23 16:33N 51°20' E 003°12'0 0.0
2016-Nov-23 15:33N 51°20' E 003°12'0 0.0
2016-Nov-23 14:30N 51°20' E 003°12'0 0.0
2016-Nov-23 13:33N 51°20' E 003°12'0 0.0
2016-Nov-23 12:33N 51°20' E 003°12'0 0.0
2016-Nov-23 11:30N 51°20' E 003°12'0 0.0
2016-Nov-23 10:33N 51°20' E 003°12'0 0.0
2016-Nov-23 09:33N 51°20' E 003°12'0 0.0
2016-Nov-23 08:33N 51°20' E 003°12'0 0.0
2016-Nov-23 07:33N 51°20' E 003°12'0 0.0
2016-Nov-23 06:33N 51°20' E 003°12'0 0.0
2016-Nov-23 03:33N 51°20' E 003°12'0 0.0
2016-Nov-23 02:33N 51°20' E 003°12'0 0.0
2016-Nov-23 00:33N 51°20' E 003°12'0 0.0
2016-Nov-22 23:30N 51°20' E 003°12'0 0.0
2016-Nov-22 22:33N 51°20' E 003°12'0 0.0
2016-Nov-22 20:30N 51°20' E 003°12'0 0.0
2016-Nov-22 19:33N 51°20' E 003°12'1 0.4
2016-Nov-22 17:31N 51°21' E 003°12'0 0.0
2016-Nov-22 16:31N 51°21' E 003°12'0 0.0
2016-Nov-22 15:31N 51°21' E 003°12'0 0.0
2016-Nov-22 14:31N 51°21' E 003°12'0 0.0
2016-Nov-22 13:31N 51°21' E 003°12'0 0.0
2016-Nov-22 10:31N 51°21' E 003°12'  

Dump ship's entire track history